createdAt,value
2017-08-16T00:00:40.293Z,20.20
2017-08-16T00:03:08.431Z,20.00
2017-08-16T00:05:36.595Z,19.90
2017-08-16T00:08:04.831Z,19.70
2017-08-16T00:10:33.755Z,19.60
2017-08-16T00:13:01.891Z,19.50
2017-08-16T00:15:30.010Z,19.50
2017-08-16T00:17:58.161Z,19.40
2017-08-16T00:20:26.307Z,19.40
2017-08-16T00:22:55.207Z,19.40
2017-08-16T00:25:24.139Z,19.30
2017-08-16T00:27:52.270Z,19.30
2017-08-16T00:30:21.185Z,19.30
2017-08-16T00:32:49.316Z,19.30
2017-08-16T00:35:18.210Z,19.40
2017-08-16T00:37:47.150Z,19.30
2017-08-16T00:40:15.273Z,19.30
2017-08-16T00:42:44.172Z,19.30
2017-08-16T00:45:12.335Z,19.30
2017-08-16T00:47:41.221Z,19.20
2017-08-16T00:50:10.126Z,19.20
2017-08-16T00:52:38.293Z,19.20
2017-08-16T00:55:06.435Z,19.20
2017-08-16T00:57:34.602Z,19.10
2017-08-16T01:00:02.735Z,19.10
2017-08-16T01:02:30.864Z,19.10
2017-08-16T01:04:59.794Z,19.00
2017-08-16T01:07:27.973Z,19.10
2017-08-16T01:09:56.089Z,19.00
2017-08-16T01:12:24.252Z,19.10
2017-08-16T01:14:52.387Z,19.00
2017-08-16T01:17:20.549Z,19.00
2017-08-16T01:19:48.683Z,19.00
2017-08-16T01:22:17.573Z,19.00
2017-08-16T01:24:46.485Z,19.00
2017-08-16T01:27:14.617Z,19.00
2017-08-16T01:29:42.759Z,19.00
2017-08-16T01:32:10.922Z,18.90
2017-08-16T01:34:39.053Z,18.90
2017-08-16T01:37:07.986Z,18.90
2017-08-16T01:39:36.118Z,18.90
2017-08-16T01:42:05.146Z,18.80
2017-08-16T01:44:33.318Z,18.80
2017-08-16T01:47:01.437Z,18.70
2017-08-16T01:49:30.375Z,18.70
2017-08-16T01:51:58.512Z,18.70
2017-08-16T01:54:26.628Z,18.70
2017-08-16T01:56:54.792Z,18.70
2017-08-16T01:59:22.927Z,18.70
2017-08-16T02:01:51.078Z,18.70
2017-08-16T02:04:19.274Z,18.70
2017-08-16T02:06:48.175Z,18.70
2017-08-16T02:09:16.324Z,18.70
2017-08-16T02:11:45.213Z,18.70
2017-08-16T02:14:14.143Z,18.70
2017-08-16T02:16:42.278Z,18.70
2017-08-16T02:19:10.407Z,18.70
2017-08-16T02:21:38.554Z,18.70
2017-08-16T02:24:06.668Z,18.70
2017-08-16T02:26:34.832Z,18.70
2017-08-16T02:29:02.958Z,18.70
2017-08-16T02:31:31.077Z,18.70
2017-08-16T02:33:59.240Z,18.70
2017-08-16T02:36:27.371Z,18.70
2017-08-16T02:38:55.502Z,18.70
2017-08-16T02:41:23.667Z,18.70
2017-08-16T02:43:51.794Z,18.60
2017-08-16T02:46:19.972Z,18.60
2017-08-16T02:48:48.106Z,18.60
2017-08-16T02:51:17.016Z,18.60
2017-08-16T02:53:45.170Z,18.50
2017-08-16T02:56:14.096Z,18.50
2017-08-16T02:58:42.267Z,18.50
2017-08-16T03:01:10.411Z,18.50
2017-08-16T03:03:38.619Z,18.50
2017-08-16T03:06:06.756Z,18.50
2017-08-16T03:08:34.894Z,18.40
2017-08-16T03:11:03.097Z,18.40
2017-08-16T03:13:31.231Z,18.40
2017-08-16T03:15:59.411Z,18.40
2017-08-16T03:18:27.537Z,18.40
2017-08-16T03:20:55.678Z,18.40
2017-08-16T03:23:24.625Z,18.40
2017-08-16T03:25:52.757Z,18.30
2017-08-16T03:28:20.995Z,18.40
2017-08-16T03:30:49.137Z,18.30
2017-08-16T03:33:17.302Z,18.40
2017-08-16T03:35:45.461Z,18.30
2017-08-16T03:38:13.602Z,18.30
2017-08-16T03:40:41.773Z,18.30
2017-08-16T03:43:09.897Z,18.30
2017-08-16T03:45:38.059Z,18.30
2017-08-16T03:48:06.225Z,18.30
2017-08-16T03:50:34.349Z,18.30
2017-08-16T03:53:03.239Z,18.30
2017-08-16T03:55:32.168Z,18.30
2017-08-16T03:58:00.301Z,18.20
2017-08-16T04:00:29.218Z,18.30
2017-08-16T04:02:57.347Z,18.20
2017-08-16T04:05:26.284Z,18.30
2017-08-16T04:07:54.409Z,18.30
2017-08-16T04:10:22.705Z,18.30
2017-08-16T04:12:50.824Z,18.30
2017-08-16T04:15:18.953Z,18.30
2017-08-16T04:17:47.120Z,18.30
2017-08-16T04:20:15.254Z,18.40
2017-08-16T04:22:43.431Z,18.40
2017-08-16T04:25:11.575Z,18.40
2017-08-16T04:27:39.741Z,18.40
2017-08-16T04:30:07.869Z,18.40
2017-08-16T04:32:36.785Z,18.40
2017-08-16T04:35:04.966Z,18.40
2017-08-16T04:37:33.103Z,18.40
2017-08-16T04:40:02.008Z,18.40
2017-08-16T04:42:30.165Z,18.30
2017-08-16T04:44:59.058Z,18.30
2017-08-16T04:47:27.269Z,18.30
2017-08-16T04:49:55.512Z,18.30
2017-08-16T04:52:23.639Z,18.30
2017-08-16T04:54:51.803Z,18.30
2017-08-16T04:57:19.935Z,18.30
2017-08-16T04:59:48.101Z,18.30
2017-08-16T05:02:16.245Z,18.30
2017-08-16T05:04:45.169Z,18.30
2017-08-16T05:07:13.289Z,18.30
2017-08-16T05:09:41.430Z,18.30
2017-08-16T05:12:09.588Z,18.30
2017-08-16T05:14:37.705Z,18.30
2017-08-16T05:17:05.871Z,18.30
2017-08-16T05:19:34.006Z,18.30
2017-08-16T05:22:02.178Z,18.30
2017-08-16T05:24:30.398Z,18.30
2017-08-16T05:26:58.540Z,18.30
2017-08-16T05:29:26.719Z,18.30
2017-08-16T05:31:54.845Z,18.30
2017-08-16T05:34:23.006Z,18.30
2017-08-16T05:36:51.905Z,18.40
2017-08-16T05:39:20.071Z,18.40
2017-08-16T05:41:48.221Z,18.40
2017-08-16T05:44:16.395Z,18.40
2017-08-16T05:46:45.293Z,18.40
2017-08-16T05:49:14.267Z,18.40
2017-08-16T05:51:42.435Z,18.40
2017-08-16T05:54:10.620Z,18.40
2017-08-16T05:56:39.515Z,18.50
2017-08-16T05:59:07.684Z,18.50
2017-08-16T06:01:36.581Z,18.50
2017-08-16T06:04:05.465Z,18.50
2017-08-16T06:06:34.381Z,18.50
2017-08-16T06:09:02.621Z,18.50
2017-08-16T06:11:31.509Z,18.60
2017-08-16T06:14:00.442Z,18.60
2017-08-16T06:16:28.628Z,18.60
2017-08-16T06:18:56.790Z,18.60
2017-08-16T06:21:24.924Z,18.70
2017-08-16T06:23:53.863Z,18.80
2017-08-16T06:26:21.985Z,18.80
2017-08-16T06:28:50.894Z,18.90
2017-08-16T06:31:19.045Z,18.90
2017-08-16T06:33:48.949Z,19.10
2017-08-16T06:36:17.879Z,19.10
2017-08-16T06:38:46.012Z,19.10
2017-08-16T06:41:14.947Z,19.30
2017-08-16T06:43:43.170Z,19.30
2017-08-16T06:46:11.297Z,19.40
2017-08-16T06:48:39.461Z,19.50
2017-08-16T06:51:07.595Z,19.60
2017-08-16T06:53:36.502Z,19.80
2017-08-16T06:56:04.653Z,19.80
2017-08-16T06:58:33.548Z,19.80
2017-08-16T07:01:02.526Z,19.90
2017-08-16T07:03:31.416Z,20.00
2017-08-16T07:06:00.353Z,20.20
2017-08-16T07:08:28.525Z,20.20
2017-08-16T07:10:56.675Z,20.40
2017-08-16T07:13:24.844Z,20.60
2017-08-16T07:15:52.996Z,20.80
2017-08-16T07:18:21.909Z,21.10
2017-08-16T07:20:50.895Z,21.10
2017-08-16T07:23:19.049Z,21.10
2017-08-16T07:25:47.169Z,21.20
2017-08-16T07:28:15.324Z,21.10
2017-08-16T07:30:43.459Z,21.10
2017-08-16T07:33:12.390Z,21.00
2017-08-16T07:35:40.515Z,21.00
2017-08-16T07:38:08.646Z,21.00
2017-08-16T07:40:36.810Z,21.00
2017-08-16T07:43:05.001Z,20.90
2017-08-16T07:45:33.205Z,20.90
2017-08-16T07:48:02.106Z,21.00
2017-08-16T07:50:31.007Z,21.10
2017-08-16T07:52:59.217Z,21.10
2017-08-16T07:55:27.352Z,21.10
2017-08-16T07:57:55.510Z,21.10
2017-08-16T08:00:23.669Z,21.10
2017-08-16T08:02:51.834Z,21.10
2017-08-16T08:05:19.968Z,21.00
2017-08-16T08:07:48.124Z,21.00
2017-08-16T08:10:16.241Z,21.10
2017-08-16T08:12:44.372Z,21.10
2017-08-16T08:15:12.534Z,21.10
2017-08-16T08:17:40.667Z,21.10
2017-08-16T08:20:08.827Z,21.10
2017-08-16T08:22:36.971Z,21.10
2017-08-16T08:25:05.102Z,21.10
2017-08-16T08:27:34.016Z,21.20
2017-08-16T08:30:02.145Z,21.20
2017-08-16T08:32:30.335Z,21.30
2017-08-16T08:34:59.217Z,21.20
2017-08-16T08:37:28.114Z,21.20
2017-08-16T08:39:56.264Z,21.20
2017-08-16T08:42:24.383Z,21.20
2017-08-16T08:44:52.552Z,21.20
2017-08-16T08:47:20.673Z,21.30
2017-08-16T08:49:48.799Z,21.50
2017-08-16T08:52:16.953Z,21.90
2017-08-16T08:54:45.092Z,22.30
2017-08-16T08:57:13.979Z,23.30
2017-08-16T08:59:42.166Z,23.20
2017-08-16T09:02:11.058Z,23.90
2017-08-16T09:04:39.992Z,24.00
2017-08-16T09:07:08.117Z,23.90
2017-08-16T09:09:36.242Z,24.00
2017-08-16T09:12:04.417Z,24.20
2017-08-16T09:14:32.540Z,24.30
2017-08-16T09:17:00.718Z,24.30
2017-08-16T09:19:28.838Z,24.40
2017-08-16T09:21:56.962Z,24.50
2017-08-16T09:24:25.135Z,24.70
2017-08-16T09:26:53.266Z,24.80
2017-08-16T09:29:21.420Z,24.90
2017-08-16T09:31:49.542Z,24.90
2017-08-16T09:34:17.674Z,24.80
2017-08-16T09:36:45.831Z,24.80
2017-08-16T09:39:13.961Z,24.90
2017-08-16T09:41:42.129Z,25.10
2017-08-16T09:44:10.256Z,25.20
2017-08-16T09:46:38.422Z,25.30
2017-08-16T09:49:06.565Z,25.40
2017-08-16T09:51:34.689Z,25.30
2017-08-16T09:54:03.630Z,25.40
2017-08-16T09:56:31.760Z,25.40
2017-08-16T09:59:00.677Z,25.90
2017-08-16T10:01:28.801Z,25.90
2017-08-16T10:03:56.936Z,26.20
2017-08-16T10:06:25.088Z,26.50
2017-08-16T10:08:53.222Z,26.70
2017-08-16T10:11:22.141Z,27.00
2017-08-16T10:13:50.282Z,26.90
2017-08-16T10:16:19.215Z,27.20
2017-08-16T10:18:47.337Z,27.10
2017-08-16T10:21:15.485Z,27.30
2017-08-16T10:23:43.618Z,27.40
2017-08-16T10:26:11.751Z,27.50
2017-08-16T10:28:39.912Z,27.60
2017-08-16T10:31:08.044Z,27.60
2017-08-16T10:33:36.194Z,27.70
2017-08-16T10:36:04.327Z,27.50
2017-08-16T10:38:32.453Z,27.50
2017-08-16T10:41:00.623Z,27.50
2017-08-16T10:43:28.767Z,27.40
2017-08-16T10:45:57.691Z,27.40
2017-08-16T10:48:25.818Z,27.30
2017-08-16T10:50:54.707Z,27.30
2017-08-16T10:53:23.644Z,27.20
2017-08-16T10:55:51.765Z,27.20
2017-08-16T10:58:20.685Z,27.10
2017-08-16T11:00:48.801Z,27.10
2017-08-16T11:03:16.956Z,27.10
2017-08-16T11:05:45.086Z,27.10
2017-08-16T11:08:14.007Z,26.70
2017-08-16T11:10:42.130Z,26.70
2017-08-16T11:13:11.032Z,26.30
2017-08-16T11:15:39.191Z,26.20
2017-08-16T11:18:07.317Z,26.10
2017-08-16T11:20:35.526Z,25.90
2017-08-16T11:23:03.651Z,25.70
2017-08-16T11:25:31.769Z,25.50
2017-08-16T11:27:59.917Z,25.40
2017-08-16T11:30:28.062Z,25.30
2017-08-16T11:32:56.183Z,25.30
2017-08-16T11:35:24.329Z,25.30
2017-08-16T11:37:52.448Z,25.30
2017-08-16T11:40:20.601Z,25.20
2017-08-16T11:42:49.484Z,25.10
2017-08-16T11:45:17.655Z,25.10
2017-08-16T11:47:45.787Z,25.00
2017-08-16T11:50:13.909Z,24.80
2017-08-16T11:52:42.829Z,24.90
2017-08-16T11:55:10.963Z,24.80
2017-08-16T11:57:39.139Z,24.90
2017-08-16T12:00:08.029Z,24.90
2017-08-16T12:02:37.007Z,24.90
2017-08-16T12:05:05.161Z,24.90
2017-08-16T12:07:33.290Z,24.90
2017-08-16T12:10:01.451Z,25.00
2017-08-16T12:12:29.608Z,25.10
2017-08-16T12:14:57.760Z,25.20
2017-08-16T12:17:25.933Z,25.20
2017-08-16T12:19:54.071Z,25.20
2017-08-16T12:22:22.239Z,25.30
2017-08-16T12:24:50.377Z,25.20
2017-08-16T12:27:19.302Z,25.20
2017-08-16T12:29:47.421Z,25.20
2017-08-16T12:32:16.309Z,25.20
2017-08-16T12:34:45.243Z,25.20
2017-08-16T12:37:13.383Z,25.20
2017-08-16T12:39:42.269Z,25.20
2017-08-16T12:42:11.203Z,25.10
2017-08-16T12:44:39.423Z,25.10
2017-08-16T12:47:08.353Z,24.90
2017-08-16T12:49:36.483Z,24.90
2017-08-16T12:52:04.622Z,24.80
2017-08-16T12:54:32.792Z,24.80
2017-08-16T12:57:00.916Z,24.70
2017-08-16T12:59:29.050Z,24.70
2017-08-16T13:01:57.215Z,24.70
2017-08-16T13:04:25.338Z,24.70
2017-08-16T13:06:53.477Z,24.70
2017-08-16T13:09:21.655Z,24.70
2017-08-16T13:11:50.549Z,24.60
2017-08-16T13:14:19.480Z,24.60
2017-08-16T13:16:47.615Z,24.50
2017-08-16T13:19:16.558Z,24.50
2017-08-16T13:21:44.686Z,24.50
2017-08-16T13:24:12.801Z,24.50
2017-08-16T13:26:40.956Z,24.50
2017-08-16T13:29:09.086Z,24.50
2017-08-16T13:31:38.011Z,24.50
2017-08-16T13:34:06.138Z,24.50
2017-08-16T13:36:34.289Z,24.50
2017-08-16T13:39:02.422Z,24.60
2017-08-16T13:41:30.573Z,24.70
2017-08-16T13:43:58.698Z,24.70
2017-08-16T13:46:26.998Z,24.80
2017-08-16T13:48:55.933Z,24.90
2017-08-16T13:51:24.064Z,24.90
2017-08-16T13:53:52.982Z,25.00
2017-08-16T13:56:21.114Z,25.00
2017-08-16T13:58:49.243Z,25.00
2017-08-16T14:01:17.411Z,25.00
2017-08-16T14:03:45.535Z,24.90
2017-08-16T14:06:14.474Z,24.90
2017-08-16T14:08:42.610Z,24.90
2017-08-16T14:11:11.542Z,24.90
2017-08-16T14:13:39.683Z,24.80
2017-08-16T14:16:07.815Z,24.80
2017-08-16T14:18:35.983Z,24.80
2017-08-16T14:21:04.105Z,24.80
2017-08-16T14:23:32.272Z,24.70
2017-08-16T14:26:00.394Z,24.70
2017-08-16T14:28:28.532Z,24.60
2017-08-16T14:30:56.688Z,24.50
2017-08-16T14:33:24.821Z,24.50
2017-08-16T14:35:52.983Z,24.50
2017-08-16T14:38:21.126Z,24.40
2017-08-16T14:40:49.287Z,24.40
2017-08-16T14:43:17.413Z,24.30
2017-08-16T14:45:45.547Z,24.20
2017-08-16T14:48:13.714Z,24.20
2017-08-16T14:50:42.081Z,24.10
2017-08-16T14:53:10.201Z,24.10
2017-08-16T14:55:39.138Z,24.10
2017-08-16T14:58:07.279Z,24.10
2017-08-16T15:00:36.169Z,24.10
2017-08-16T15:03:05.099Z,24.10
2017-08-16T15:05:33.240Z,24.10
2017-08-16T15:08:01.406Z,24.10
2017-08-16T15:10:29.526Z,24.10
2017-08-16T15:12:57.655Z,24.20
2017-08-16T15:15:25.827Z,24.20
2017-08-16T15:17:53.949Z,24.20
2017-08-16T15:20:22.116Z,24.30
2017-08-16T15:22:50.251Z,24.30
2017-08-16T15:25:18.390Z,24.30
2017-08-16T15:27:47.318Z,24.40
2017-08-16T15:30:15.455Z,24.30
2017-08-16T15:32:44.532Z,24.40
2017-08-16T15:35:12.659Z,24.40
2017-08-16T15:37:40.786Z,24.40
2017-08-16T15:40:09.713Z,24.50
2017-08-16T15:42:37.849Z,24.40
2017-08-16T15:45:06.751Z,24.50
2017-08-16T15:47:34.902Z,24.40
2017-08-16T15:50:03.787Z,24.40
2017-08-16T15:52:31.908Z,24.40
2017-08-16T15:55:00.057Z,24.40
2017-08-16T15:57:28.182Z,24.40
2017-08-16T15:59:56.333Z,24.40
2017-08-16T16:02:24.457Z,24.40
2017-08-16T16:04:53.349Z,24.40
2017-08-16T16:07:22.298Z,24.40
2017-08-16T16:09:50.438Z,24.40
2017-08-16T16:12:18.612Z,24.40
2017-08-16T16:14:46.747Z,24.30
2017-08-16T16:17:15.654Z,24.30
2017-08-16T16:19:43.801Z,24.30
2017-08-16T16:22:12.706Z,24.30
2017-08-16T16:24:41.630Z,24.30
2017-08-16T16:27:09.764Z,24.20
2017-08-16T16:29:38.658Z,24.20
2017-08-16T16:32:06.810Z,24.20
2017-08-16T16:34:35.707Z,24.30
2017-08-16T16:37:04.637Z,24.20
2017-08-16T16:39:32.775Z,24.20
2017-08-16T16:42:01.710Z,24.20
2017-08-16T16:44:29.843Z,24.20
2017-08-16T16:46:58.002Z,24.20
2017-08-16T16:49:26.181Z,24.10
2017-08-16T16:51:54.302Z,24.10
2017-08-16T16:54:22.508Z,24.10
2017-08-16T16:56:52.382Z,24.00
2017-08-16T16:59:20.527Z,24.00
2017-08-16T17:01:48.677Z,24.00
2017-08-16T17:04:16.811Z,24.00
2017-08-16T17:06:45.040Z,24.00
2017-08-16T17:09:13.215Z,24.00
2017-08-16T17:11:41.355Z,23.90
2017-08-16T17:14:09.496Z,23.90
2017-08-16T17:16:37.648Z,23.80
2017-08-16T17:19:05.769Z,23.80
2017-08-16T17:21:34.712Z,23.70
2017-08-16T17:24:02.856Z,23.70
2017-08-16T17:26:31.053Z,23.70
2017-08-16T17:28:59.209Z,23.60
2017-08-16T17:31:27.342Z,23.60
2017-08-16T17:33:56.304Z,23.50
2017-08-16T17:36:24.456Z,23.50
2017-08-16T17:38:52.677Z,23.50
2017-08-16T17:41:21.575Z,23.40
2017-08-16T17:43:50.463Z,23.30
2017-08-16T17:46:19.402Z,23.30
2017-08-16T17:48:47.634Z,23.30
2017-08-16T17:51:16.558Z,23.30
2017-08-16T17:53:44.691Z,23.30
2017-08-16T17:56:12.814Z,23.20
2017-08-16T17:58:40.967Z,23.20
2017-08-16T18:01:09.099Z,23.10
2017-08-16T18:03:38.038Z,23.00
2017-08-16T18:06:06.183Z,23.00
2017-08-16T18:08:34.389Z,23.00
2017-08-16T18:11:02.558Z,23.00
2017-08-16T18:13:30.681Z,22.90
2017-08-16T18:15:59.574Z,22.80
2017-08-16T18:18:28.512Z,22.70
2017-08-16T18:20:56.641Z,22.70
2017-08-16T18:23:24.808Z,22.70
2017-08-16T18:25:52.930Z,22.60
2017-08-16T18:28:21.053Z,22.60
2017-08-16T18:30:49.221Z,22.60
2017-08-16T18:33:18.128Z,22.50
2017-08-16T18:35:46.303Z,22.50
2017-08-16T18:38:14.450Z,22.50
2017-08-16T18:40:43.346Z,22.40
2017-08-16T18:43:11.514Z,22.40
2017-08-16T18:45:39.655Z,22.40
2017-08-16T18:48:07.821Z,22.30
2017-08-16T18:50:36.007Z,22.30
2017-08-16T18:53:04.932Z,22.20
2017-08-16T18:55:33.097Z,22.20
2017-08-16T18:58:01.249Z,22.20
2017-08-16T19:00:30.146Z,22.10
2017-08-16T19:02:59.042Z,22.00
2017-08-16T19:05:27.215Z,22.00
2017-08-16T19:07:55.342Z,22.00
2017-08-16T19:10:23.466Z,22.00
2017-08-16T19:12:51.633Z,22.00
2017-08-16T19:15:19.762Z,21.90
2017-08-16T19:17:47.952Z,21.80
2017-08-16T19:20:16.943Z,21.70
2017-08-16T19:22:45.846Z,21.70
2017-08-16T19:25:14.787Z,21.70
2017-08-16T19:27:42.965Z,21.60
2017-08-16T19:30:11.183Z,21.60
2017-08-16T19:32:40.115Z,21.50
2017-08-16T19:35:08.287Z,21.50
2017-08-16T19:37:36.499Z,21.50
2017-08-16T19:40:04.728Z,21.50
2017-08-16T19:42:32.870Z,21.50
2017-08-16T19:45:01.045Z,21.40
2017-08-16T19:47:29.195Z,21.40
2017-08-16T19:49:57.380Z,21.40
2017-08-16T19:52:26.268Z,21.30
2017-08-16T19:54:55.188Z,21.30
2017-08-16T19:57:23.377Z,21.20
2017-08-16T19:59:51.563Z,21.20
2017-08-16T20:02:19.700Z,21.20
2017-08-16T20:04:47.866Z,21.10
2017-08-16T20:07:16.101Z,21.00
2017-08-16T20:09:45.029Z,20.90
2017-08-16T20:12:13.167Z,20.90
2017-08-16T20:14:42.087Z,20.80
2017-08-16T20:17:10.256Z,20.80
2017-08-16T20:19:38.913Z,20.80
2017-08-16T20:22:07.109Z,20.80
2017-08-16T20:24:35.233Z,20.70
2017-08-16T20:27:03.424Z,20.80
2017-08-16T20:29:32.349Z,20.70
2017-08-16T20:32:00.499Z,20.70
2017-08-16T20:34:29.515Z,20.60
2017-08-16T20:36:57.643Z,20.60
2017-08-16T20:39:25.806Z,20.50
2017-08-16T20:41:53.955Z,20.50
2017-08-16T20:44:22.137Z,20.50
2017-08-16T20:46:50.310Z,20.50
2017-08-16T20:49:18.506Z,20.40
2017-08-16T20:51:47.506Z,20.30
2017-08-16T20:54:16.413Z,20.30
2017-08-16T20:56:44.552Z,20.30
2017-08-16T20:59:12.719Z,20.20
2017-08-16T21:01:40.850Z,20.20
2017-08-16T21:04:09.024Z,20.20
2017-08-16T21:06:37.154Z,20.20
2017-08-16T21:09:06.065Z,20.20
2017-08-16T21:11:34.228Z,20.20
2017-08-16T21:14:02.350Z,20.20
2017-08-16T21:16:30.526Z,20.20
2017-08-16T21:18:58.653Z,20.20
2017-08-16T21:21:26.842Z,20.20
2017-08-16T21:23:54.976Z,20.10
2017-08-16T21:26:23.866Z,20.10
2017-08-16T21:28:52.790Z,20.00
2017-08-16T21:31:20.917Z,20.00
2017-08-16T21:33:49.823Z,19.90
2017-08-16T21:36:17.982Z,19.90
2017-08-16T21:38:46.877Z,19.80
2017-08-16T21:41:15.807Z,19.80
2017-08-16T21:43:43.929Z,19.70
2017-08-16T21:46:12.095Z,19.70
2017-08-16T21:48:40.993Z,19.60
2017-08-16T21:51:09.899Z,19.60
2017-08-16T21:53:38.070Z,19.50
2017-08-16T21:56:06.197Z,19.50
2017-08-16T21:58:34.331Z,19.50
2017-08-16T22:01:02.498Z,19.40
2017-08-16T22:03:30.631Z,19.30
2017-08-16T22:05:59.541Z,19.30
2017-08-16T22:08:27.703Z,19.30
2017-08-16T22:10:56.626Z,19.20
2017-08-16T22:13:24.759Z,19.20
2017-08-16T22:15:53.683Z,19.10
2017-08-16T22:18:21.800Z,19.10
2017-08-16T22:20:49.953Z,19.10
2017-08-16T22:23:18.074Z,19.00
2017-08-16T22:25:46.224Z,19.00
2017-08-16T22:28:15.481Z,19.00
2017-08-16T22:30:43.655Z,18.90
2017-08-16T22:33:11.819Z,18.90
2017-08-16T22:35:39.954Z,18.90
2017-08-16T22:38:08.139Z,18.80
2017-08-16T22:40:36.273Z,18.80
2017-08-16T22:43:04.393Z,18.80
2017-08-16T22:45:32.568Z,18.80
2017-08-16T22:48:00.691Z,18.80
2017-08-16T22:50:28.813Z,18.70
2017-08-16T22:52:56.993Z,18.70
2017-08-16T22:55:25.139Z,18.70
2017-08-16T22:57:53.264Z,18.70
2017-08-16T23:00:21.418Z,18.70
2017-08-16T23:02:49.555Z,18.70
2017-08-16T23:05:17.726Z,18.60
2017-08-16T23:07:45.845Z,18.60
2017-08-16T23:10:13.965Z,18.60
2017-08-16T23:12:42.138Z,18.60
2017-08-16T23:15:10.279Z,18.50
2017-08-16T23:17:39.216Z,18.50
2017-08-16T23:20:07.336Z,18.50
2017-08-16T23:22:35.452Z,18.50
2017-08-16T23:25:03.682Z,18.50
2017-08-16T23:27:31.797Z,18.50
2017-08-16T23:29:59.932Z,18.40
2017-08-16T23:32:28.859Z,18.40
2017-08-16T23:34:56.996Z,18.40
2017-08-16T23:37:25.882Z,18.40
2017-08-16T23:39:54.816Z,18.40
2017-08-16T23:42:22.940Z,18.40
2017-08-16T23:44:51.094Z,18.40
2017-08-16T23:47:19.231Z,18.30
2017-08-16T23:49:47.398Z,18.30
2017-08-16T23:52:15.518Z,18.30
2017-08-16T23:54:43.649Z,18.30
2017-08-16T23:57:11.798Z,18.30
2017-08-16T23:59:39.929Z,18.20
